createdAt,value
2016-08-11T00:00:25.648Z,0
2016-08-11T00:01:26.590Z,0
2016-08-11T00:02:27.872Z,0
2016-08-11T00:03:26.637Z,0
2016-08-11T00:04:25.111Z,0
2016-08-11T00:05:25.556Z,0
2016-08-11T00:06:27.038Z,0
2016-08-11T00:07:25.553Z,0
2016-08-11T00:08:27.208Z,0
2016-08-11T00:09:28.251Z,0
2016-08-11T00:10:25.605Z,0
2016-08-11T00:11:28.011Z,0
2016-08-11T00:12:27.108Z,0
2016-08-11T00:13:25.567Z,0
2016-08-11T00:14:26.124Z,0
2016-08-11T00:15:26.851Z,0
2016-08-11T00:16:26.078Z,0
2016-08-11T00:17:26.851Z,0
2016-08-11T00:18:26.137Z,0
2016-08-11T00:19:27.137Z,0
2016-08-11T00:20:28.274Z,0
2016-08-11T00:21:26.339Z,0
2016-08-11T00:22:27.384Z,0
2016-08-11T00:23:27.005Z,0
2016-08-11T00:24:28.229Z,0
2016-08-11T00:25:28.675Z,0
2016-08-11T00:26:27.276Z,0
2016-08-11T00:27:26.227Z,0
2016-08-11T00:28:26.560Z,0
2016-08-11T00:29:25.924Z,0
2016-08-11T00:30:26.390Z,0
2016-08-11T00:31:26.515Z,0
2016-08-11T00:32:27.179Z,0
2016-08-11T00:33:26.592Z,0
2016-08-11T00:34:25.757Z,0
2016-08-11T00:35:25.684Z,0
2016-08-11T00:36:28.259Z,0
2016-08-11T00:37:26.698Z,0
2016-08-11T00:38:26.895Z,0
2016-08-11T00:39:26.932Z,0
2016-08-11T00:40:28.352Z,0
2016-08-11T00:41:27.296Z,0
2016-08-11T00:42:27.723Z,0
2016-08-11T00:44:25.812Z,0
2016-08-11T00:45:26.669Z,0
2016-08-11T00:46:26.585Z,0
2016-08-11T00:47:28.071Z,0
2016-08-11T00:48:29.216Z,0
2016-08-11T00:49:28.135Z,0
2016-08-11T00:50:26.637Z,0
2016-08-11T00:51:28.017Z,0
2016-08-11T00:52:27.562Z,0
2016-08-11T00:53:29.067Z,0
2016-08-11T00:54:29.190Z,0
2016-08-11T00:55:28.043Z,0
2016-08-11T00:56:28.190Z,0
2016-08-11T00:57:27.840Z,0
2016-08-11T00:59:29.147Z,0
2016-08-11T01:00:26.643Z,0
2016-08-11T01:01:26.897Z,0
2016-08-11T01:02:28.745Z,0
2016-08-11T01:03:28.606Z,0
2016-08-11T01:04:26.315Z,0
2016-08-11T01:05:29.787Z,0
2016-08-11T01:06:27.008Z,0
2016-08-11T01:07:28.333Z,0
2016-08-11T01:08:28.251Z,0
2016-08-11T01:09:27.425Z,0
2016-08-11T01:10:26.819Z,0
2016-08-11T01:11:28.424Z,0
2016-08-11T01:12:27.549Z,0
2016-08-11T01:14:28.753Z,0
2016-08-11T01:15:29.539Z,0
2016-08-11T01:16:27.602Z,0
2016-08-11T01:17:28.916Z,0
2016-08-11T01:18:29.418Z,0
2016-08-11T01:19:30.431Z,0
2016-08-11T01:20:26.865Z,0
2016-08-11T01:21:28.238Z,0
2016-08-11T01:22:26.873Z,0
2016-08-11T01:23:27.126Z,0
2016-08-11T01:24:28.758Z,0
2016-08-11T01:25:29.031Z,0
2016-08-11T01:26:29.155Z,0
2016-08-11T01:27:29.175Z,0
2016-08-11T01:29:28.753Z,0
2016-08-11T01:30:28.455Z,0
2016-08-11T01:31:28.575Z,0
2016-08-11T01:32:28.201Z,0
2016-08-11T01:33:27.802Z,0
2016-08-11T01:34:29.232Z,0
2016-08-11T01:35:26.967Z,0
2016-08-11T01:36:28.722Z,0
2016-08-11T01:37:29.725Z,0
2016-08-11T01:38:29.867Z,0
2016-08-11T01:39:29.462Z,0
2016-08-11T01:40:28.114Z,0
2016-08-11T01:41:27.496Z,0
2016-08-11T01:42:28.637Z,0
2016-08-11T01:44:27.728Z,0
2016-08-11T01:45:29.775Z,0
2016-08-11T01:46:28.831Z,0
2016-08-11T01:47:27.021Z,0
2016-08-11T01:48:28.663Z,0
2016-08-11T01:49:28.235Z,0
2016-08-11T01:50:28.920Z,0
2016-08-11T01:51:28.269Z,0
2016-08-11T01:52:27.329Z,0
2016-08-11T01:53:29.157Z,0
2016-08-11T01:54:27.684Z,0
2016-08-11T01:55:29.038Z,0
2016-08-11T01:56:27.208Z,0
2016-08-11T01:57:29.738Z,0
2016-08-11T01:59:28.586Z,0
2016-08-11T02:00:28.363Z,0
2016-08-11T02:01:27.540Z,0
2016-08-11T02:02:29.450Z,0
2016-08-11T02:03:31.033Z,0
2016-08-11T02:04:29.403Z,0
2016-08-11T02:05:29.874Z,0
2016-08-11T02:06:28.321Z,0
2016-08-11T02:07:28.516Z,0
2016-08-11T02:08:30.330Z,0
2016-08-11T02:09:28.923Z,0
2016-08-11T02:10:28.987Z,0
2016-08-11T02:11:27.978Z,0
2016-08-11T02:12:29.478Z,0
2016-08-11T02:13:28.899Z,0
2016-08-11T02:14:28.401Z,0
2016-08-11T02:15:29.279Z,0
2016-08-11T02:16:29.327Z,0
2016-08-11T02:17:30.411Z,0
2016-08-11T02:18:28.289Z,0
2016-08-11T02:19:29.372Z,0
2016-08-11T02:20:28.112Z,0
2016-08-11T02:21:30.327Z,0
2016-08-11T02:22:30.830Z,0
2016-08-11T02:23:29.308Z,0
2016-08-11T02:24:29.015Z,0
2016-08-11T02:25:29.972Z,0
2016-08-11T02:26:28.306Z,0
2016-08-11T02:27:30.682Z,0
2016-08-11T02:28:29.227Z,0
2016-08-11T02:29:28.755Z,0
2016-08-11T02:30:28.817Z,0
2016-08-11T02:31:28.675Z,0
2016-08-11T02:32:29.248Z,0
2016-08-11T02:33:29.182Z,0
2016-08-11T02:34:28.236Z,0
2016-08-11T02:35:29.600Z,0
2016-08-11T02:36:29.736Z,0
2016-08-11T02:37:30.705Z,0
2016-08-11T02:38:29.109Z,0
2016-08-11T02:39:29.541Z,0
2016-08-11T02:40:28.723Z,0
2016-08-11T02:41:31.140Z,0
2016-08-11T02:42:29.124Z,0
2016-08-11T02:43:28.470Z,0
2016-08-11T02:44:28.660Z,0
2016-08-11T02:45:28.702Z,0
2016-08-11T02:46:29.958Z,0
2016-08-11T02:47:29.440Z,0
2016-08-11T02:48:32.038Z,0
2016-08-11T02:49:31.442Z,0
2016-08-11T02:50:31.137Z,0
2016-08-11T02:51:28.370Z,0
2016-08-11T02:52:29.609Z,0
2016-08-11T02:53:30.451Z,0
2016-08-11T02:54:28.236Z,0
2016-08-11T02:55:29.897Z,0
2016-08-11T02:56:31.194Z,0
2016-08-11T02:57:30.599Z,0
2016-08-11T02:58:29.542Z,0
2016-08-11T02:59:29.863Z,0
2016-08-11T03:00:30.117Z,0
2016-08-11T03:01:28.566Z,0
2016-08-11T03:02:32.007Z,0
2016-08-11T03:03:29.725Z,0
2016-08-11T03:04:29.178Z,0
2016-08-11T03:05:28.239Z,0
2016-08-11T03:06:31.205Z,0
2016-08-11T03:07:29.943Z,0
2016-08-11T03:08:29.480Z,0
2016-08-11T03:09:29.442Z,0
2016-08-11T03:10:32.273Z,0
2016-08-11T03:11:29.557Z,0
2016-08-11T03:12:29.657Z,0
2016-08-11T03:13:30.745Z,0
2016-08-11T03:14:31.832Z,0
2016-08-11T03:15:30.414Z,0
2016-08-11T03:16:31.158Z,0
2016-08-11T03:17:29.942Z,0
2016-08-11T03:18:29.948Z,0
2016-08-11T03:19:29.647Z,0
2016-08-11T03:20:31.064Z,0
2016-08-11T03:21:30.741Z,4
2016-08-11T03:22:31.343Z,4
2016-08-11T03:23:30.762Z,0
2016-08-11T03:24:30.080Z,0
2016-08-11T03:25:29.643Z,4
2016-08-11T03:26:29.857Z,4
2016-08-11T03:27:29.109Z,4
2016-08-11T03:28:30.010Z,8
2016-08-11T03:29:29.936Z,4
2016-08-11T03:30:30.591Z,4
2016-08-11T03:31:30.158Z,8
2016-08-11T03:32:30.319Z,8
2016-08-11T03:33:29.117Z,8
2016-08-11T03:34:29.205Z,12
2016-08-11T03:35:29.119Z,12
2016-08-11T03:36:31.400Z,16
2016-08-11T03:37:30.988Z,20
2016-08-11T03:38:29.876Z,24
2016-08-11T03:39:30.089Z,28
2016-08-11T03:40:29.151Z,32
2016-08-11T03:41:31.293Z,36
2016-08-11T03:42:31.485Z,44
2016-08-11T03:43:29.660Z,48
2016-08-11T03:44:31.143Z,56
2016-08-11T03:45:29.296Z,64
2016-08-11T03:46:29.200Z,72
2016-08-11T03:47:28.937Z,80
2016-08-11T03:48:30.028Z,92
2016-08-11T03:49:31.841Z,104
2016-08-11T03:50:30.351Z,116
2016-08-11T03:51:31.013Z,132
2016-08-11T03:52:30.801Z,148
2016-08-11T03:53:31.562Z,164
2016-08-11T03:54:31.238Z,180
2016-08-11T03:55:31.007Z,204
2016-08-11T03:56:30.590Z,220
2016-08-11T03:57:30.468Z,244
2016-08-11T03:58:31.264Z,272
2016-08-11T03:59:29.910Z,296
2016-08-11T04:00:30.132Z,324
2016-08-11T04:01:30.501Z,352
2016-08-11T04:02:30.788Z,384
2016-08-11T04:03:30.478Z,420
2016-08-11T04:04:33.161Z,452
2016-08-11T04:05:29.702Z,488
2016-08-11T04:06:30.463Z,528
2016-08-11T04:07:30.580Z,568
2016-08-11T04:08:30.688Z,612
2016-08-11T04:09:30.851Z,660
2016-08-11T04:10:31.853Z,708
2016-08-11T04:11:31.207Z,756
2016-08-11T04:12:31.785Z,812
2016-08-11T04:13:32.018Z,868
2016-08-11T04:14:31.133Z,924
2016-08-11T04:15:31.647Z,984
2016-08-11T04:16:31.748Z,1044
2016-08-11T04:17:31.387Z,1112
2016-08-11T04:18:30.991Z,1180
2016-08-11T04:19:32.397Z,1252
2016-08-11T04:20:30.647Z,1324
2016-08-11T04:21:30.899Z,1396
2016-08-11T04:22:32.329Z,1472
2016-08-11T04:23:32.977Z,1552
2016-08-11T04:24:31.554Z,1632
2016-08-11T04:25:32.133Z,1720
2016-08-11T04:26:31.233Z,1816
2016-08-11T04:27:31.192Z,1912
2016-08-11T04:28:31.030Z,2008
2016-08-11T04:29:29.996Z,2108
2016-08-11T04:30:32.589Z,2224
2016-08-11T04:31:31.459Z,2336
2016-08-11T04:32:31.048Z,2464
2016-08-11T04:33:31.610Z,2608
2016-08-11T04:34:29.843Z,2760
2016-08-11T04:35:30.614Z,2920
2016-08-11T04:36:32.051Z,3080
2016-08-11T04:37:31.099Z,3212
2016-08-11T04:38:30.590Z,3340
2016-08-11T04:39:33.080Z,3448
2016-08-11T04:40:32.527Z,3516
2016-08-11T04:41:31.462Z,3592
2016-08-11T04:42:31.714Z,3660
2016-08-11T04:43:32.312Z,3704
2016-08-11T04:44:31.697Z,3760
2016-08-11T04:45:32.233Z,3784
2016-08-11T04:46:31.489Z,3816
2016-08-11T04:47:31.060Z,3848
2016-08-11T04:48:31.271Z,3884
2016-08-11T04:49:31.903Z,3904
2016-08-11T04:50:32.316Z,3928
2016-08-11T04:51:32.941Z,3980
2016-08-11T04:52:33.815Z,4048
2016-08-11T04:53:31.646Z,4128
2016-08-11T04:54:30.825Z,4228
2016-08-11T04:55:32.605Z,4336
2016-08-11T04:56:31.513Z,4436
2016-08-11T04:57:33.141Z,4524
2016-08-11T04:58:31.974Z,4604
2016-08-11T04:59:31.412Z,4676
2016-08-11T05:00:32.058Z,4756
2016-08-11T05:01:31.776Z,4876
2016-08-11T05:02:32.223Z,5036
2016-08-11T05:03:31.377Z,5216
2016-08-11T05:04:31.111Z,5400
2016-08-11T05:05:31.694Z,5572
2016-08-11T05:06:31.902Z,5708
2016-08-11T05:07:31.256Z,5800
2016-08-11T05:08:32.601Z,5916
2016-08-11T05:09:33.055Z,6044
2016-08-11T05:10:32.325Z,6192
2016-08-11T05:11:32.208Z,6352
2016-08-11T05:12:31.233Z,6404
2016-08-11T05:13:31.554Z,6460
2016-08-11T05:14:31.578Z,6472
2016-08-11T05:15:31.350Z,6376
2016-08-11T05:16:31.652Z,6396
2016-08-11T05:17:33.083Z,6624
2016-08-11T05:18:31.492Z,6788
2016-08-11T05:19:31.985Z,6928
2016-08-11T05:20:32.888Z,7188
2016-08-11T05:21:31.826Z,7420
2016-08-11T05:22:31.402Z,7636
2016-08-11T05:23:31.498Z,7944
2016-08-11T05:24:31.022Z,8244
2016-08-11T05:25:33.400Z,8500
2016-08-11T05:26:32.769Z,8684
2016-08-11T05:27:32.516Z,8840
2016-08-11T05:28:32.385Z,8948
2016-08-11T05:29:33.485Z,9032
2016-08-11T05:30:31.619Z,9224
2016-08-11T05:31:34.951Z,9260
2016-08-11T05:32:32.854Z,9444
2016-08-11T05:33:32.557Z,9664
2016-08-11T05:34:33.959Z,9952
2016-08-11T05:35:32.483Z,10016
2016-08-11T05:36:33.429Z,10148
2016-08-11T05:37:32.337Z,10228
2016-08-11T05:38:33.366Z,10520
2016-08-11T05:39:32.347Z,10672
2016-08-11T05:40:31.832Z,10900
2016-08-11T05:41:33.477Z,11200
2016-08-11T05:42:34.296Z,11416
2016-08-11T05:43:34.415Z,11700
2016-08-11T05:44:31.936Z,12224
2016-08-11T05:45:32.862Z,11848
2016-08-11T05:46:32.338Z,11848
2016-08-11T05:47:33.349Z,12324
2016-08-11T05:48:34.235Z,12252
2016-08-11T05:49:35.243Z,12232
2016-08-11T05:50:34.087Z,12624
2016-08-11T05:51:34.272Z,13148
2016-08-11T05:52:32.133Z,13224
2016-08-11T05:53:34.359Z,13376
2016-08-11T05:54:33.183Z,13820
2016-08-11T05:55:34.038Z,14036
2016-08-11T05:56:34.346Z,14288
2016-08-11T05:57:33.182Z,16096
2016-08-11T05:58:32.130Z,16736
2016-08-11T05:59:35.654Z,25376
2016-08-11T06:00:34.345Z,26752
2016-08-11T06:01:33.163Z,22880
2016-08-11T06:02:32.634Z,20576
2016-08-11T06:03:33.423Z,18592
2016-08-11T06:04:32.388Z,17344
2016-08-11T06:05:32.664Z,18496
2016-08-11T06:06:34.220Z,18304
2016-08-11T06:07:34.099Z,20288
2016-08-11T06:08:32.793Z,22112
2016-08-11T06:09:34.025Z,18304
2016-08-11T06:10:33.488Z,19808
2016-08-11T06:11:33.415Z,26848
2016-08-11T06:12:33.929Z,18240
2016-08-11T06:13:33.519Z,17536
2016-08-11T06:14:32.998Z,21824
2016-08-11T06:15:33.145Z,19072
2016-08-11T06:16:33.127Z,18560
2016-08-11T06:17:33.004Z,18048
2016-08-11T06:18:34.297Z,20448
2016-08-11T06:19:34.103Z,31296
2016-08-11T06:20:32.434Z,20192
2016-08-11T06:21:32.188Z,21664
2016-08-11T06:22:34.480Z,21664
2016-08-11T06:23:32.711Z,24800
2016-08-11T06:24:34.598Z,28064
2016-08-11T06:25:33.833Z,38432
2016-08-11T06:26:34.365Z,20448
2016-08-11T06:27:33.866Z,30208
2016-08-11T06:28:32.519Z,27712
2016-08-11T06:29:32.900Z,23520
2016-08-11T06:30:34.222Z,26976
2016-08-11T06:31:35.654Z,18592
2016-08-11T06:32:34.250Z,18400
2016-08-11T06:33:33.313Z,21120
2016-08-11T06:34:34.969Z,26688
2016-08-11T06:35:34.782Z,29248
2016-08-11T06:36:33.609Z,25824
2016-08-11T06:37:33.144Z,18048
2016-08-11T06:38:36.497Z,21856
2016-08-11T06:39:32.663Z,28992
2016-08-11T06:40:34.217Z,31200
2016-08-11T06:41:33.578Z,37504
2016-08-11T06:42:33.822Z,36736
2016-08-11T06:43:33.751Z,35264
2016-08-11T06:44:34.399Z,33376
2016-08-11T06:45:35.312Z,33696
2016-08-11T06:46:34.701Z,25280
2016-08-11T06:47:33.141Z,23680
2016-08-11T06:48:33.840Z,33376
2016-08-11T06:49:33.941Z,35904
2016-08-11T06:50:33.732Z,37056
2016-08-11T06:51:34.185Z,37984
2016-08-11T06:52:34.540Z,30688
2016-08-11T06:53:36.232Z,36576
2016-08-11T06:54:34.567Z,41280
2016-08-11T06:55:35.522Z,43840
2016-08-11T06:56:34.382Z,36672
2016-08-11T06:57:34.355Z,39360
2016-08-11T06:58:33.182Z,49888
2016-08-11T06:59:35.844Z,95104
2016-08-11T07:00:34.339Z,81504
2016-08-11T07:01:34.008Z,61120
2016-08-11T07:02:35.610Z,50432
2016-08-11T07:03:35.061Z,48320
2016-08-11T07:04:33.322Z,44352
2016-08-11T07:05:35.830Z,38208
2016-08-11T07:06:33.256Z,36000
2016-08-11T07:07:34.404Z,39840
2016-08-11T07:08:34.854Z,39840
2016-08-11T07:09:33.932Z,41568
2016-08-11T07:10:34.799Z,26560
2016-08-11T07:11:34.093Z,27776
2016-08-11T07:12:36.713Z,35264
2016-08-11T07:13:33.381Z,45376
2016-08-11T07:14:36.140Z,34656
2016-08-11T07:15:34.466Z,38432
2016-08-11T07:16:35.996Z,31104
2016-08-11T07:17:34.945Z,34944
2016-08-11T07:18:35.745Z,47808
2016-08-11T07:19:34.435Z,51424
2016-08-11T07:20:34.650Z,54400
2016-08-11T07:21:34.570Z,45824
2016-08-11T07:22:34.527Z,37056
2016-08-11T07:23:34.848Z,50240
2016-08-11T07:24:35.739Z,48160
2016-08-11T07:25:34.468Z,39296
2016-08-11T07:26:34.617Z,50432
2016-08-11T07:27:34.999Z,41152
2016-08-11T07:28:35.493Z,43680
2016-08-11T07:29:35.074Z,35424
2016-08-11T07:30:34.127Z,48608
2016-08-11T07:31:34.270Z,30432
2016-08-11T07:32:36.655Z,34560
2016-08-11T07:33:35.495Z,51328
2016-08-11T07:34:34.549Z,40160
2016-08-11T07:35:34.339Z,43712
2016-08-11T07:36:35.574Z,35680
2016-08-11T07:37:34.346Z,39488
2016-08-11T07:38:36.095Z,51104
2016-08-11T07:39:34.316Z,39360
2016-08-11T07:40:35.548Z,35008
2016-08-11T07:41:35.813Z,31488
2016-08-11T07:42:34.719Z,33888
2016-08-11T07:43:34.959Z,37888
2016-08-11T07:44:35.690Z,35744
2016-08-11T07:45:35.631Z,28864
2016-08-11T07:46:36.128Z,29504
2016-08-11T07:47:34.902Z,29568
2016-08-11T07:48:36.301Z,34624
2016-08-11T07:49:34.797Z,36736
2016-08-11T07:50:35.401Z,37824
2016-08-11T07:51:35.918Z,32864
2016-08-11T07:52:37.400Z,41728
2016-08-11T07:53:35.379Z,30080
2016-08-11T07:54:35.429Z,33440
2016-08-11T07:55:35.022Z,30368
2016-08-11T07:56:34.212Z,30080
2016-08-11T07:57:34.744Z,29984
2016-08-11T07:58:36.196Z,31904
2016-08-11T07:59:35.707Z,39488
2016-08-11T08:00:36.309Z,46432
2016-08-11T08:01:36.705Z,32928
2016-08-11T08:02:34.701Z,32800
2016-08-11T08:03:36.163Z,35392
2016-08-11T08:04:36.295Z,32416
2016-08-11T08:05:34.843Z,30112
2016-08-11T08:06:34.845Z,28992
2016-08-11T08:07:36.984Z,28704
2016-08-11T08:08:36.181Z,28576
2016-08-11T08:09:36.828Z,29344
2016-08-11T08:10:36.212Z,30784
2016-08-11T08:11:36.241Z,32288
2016-08-11T08:12:36.267Z,33568
2016-08-11T08:13:35.426Z,34688
2016-08-11T08:14:35.219Z,35904
2016-08-11T08:15:35.955Z,38272
2016-08-11T08:16:35.106Z,40064
2016-08-11T08:17:35.386Z,40032
2016-08-11T08:18:35.366Z,40416
2016-08-11T08:19:35.145Z,41280
2016-08-11T08:20:35.954Z,39744
2016-08-11T08:21:36.128Z,37664
2016-08-11T08:22:34.756Z,36224
2016-08-11T08:23:36.252Z,35808
2016-08-11T08:24:36.105Z,35936
2016-08-11T08:25:36.062Z,34624
2016-08-11T08:26:35.910Z,34208
2016-08-11T08:27:37.066Z,35072
2016-08-11T08:28:36.388Z,33440
2016-08-11T08:29:35.861Z,34112
2016-08-11T08:30:35.422Z,33184
2016-08-11T08:31:36.029Z,33600
2016-08-11T08:32:35.499Z,33120
2016-08-11T08:33:36.993Z,32544
2016-08-11T08:34:38.564Z,30752
2016-08-11T08:35:35.930Z,30336
2016-08-11T08:36:36.704Z,30112
2016-08-11T08:37:35.415Z,30496
2016-08-11T08:38:36.595Z,31712
2016-08-11T08:39:37.591Z,33152
2016-08-11T08:40:36.585Z,35136
2016-08-11T08:41:36.085Z,36864
2016-08-11T08:42:37.447Z,38656
2016-08-11T08:43:37.976Z,39328
2016-08-11T08:44:36.251Z,37664
2016-08-11T08:45:36.120Z,39456
2016-08-11T08:46:36.490Z,39744
2016-08-11T08:47:37.837Z,38592
2016-08-11T08:48:36.088Z,38240
2016-08-11T08:49:37.555Z,39808
2016-08-11T08:50:37.810Z,40384
2016-08-11T08:51:36.619Z,37184
2016-08-11T08:52:37.806Z,29248
2016-08-11T08:53:37.837Z,28544
2016-08-11T08:54:37.642Z,29984
2016-08-11T08:55:36.970Z,32704
2016-08-11T08:56:36.635Z,35072
2016-08-11T08:57:36.563Z,36608
2016-08-11T08:58:37.792Z,37536
2016-08-11T08:59:37.876Z,36192
2016-08-11T09:00:36.373Z,35200
2016-08-11T09:01:36.027Z,32800
2016-08-11T09:02:36.721Z,33280
2016-08-11T09:03:36.483Z,26080
2016-08-11T09:04:37.659Z,23968
2016-08-11T09:05:38.523Z,23744
2016-08-11T09:06:38.026Z,24256
2016-08-11T09:07:36.442Z,25184
2016-08-11T09:08:38.044Z,26272
2016-08-11T09:09:37.361Z,27904
2016-08-11T09:10:38.217Z,28928
2016-08-11T09:11:37.440Z,28992
2016-08-11T09:12:37.655Z,28704
2016-08-11T09:13:37.043Z,28512
2016-08-11T09:14:38.392Z,29664
2016-08-11T09:15:38.109Z,32672
2016-08-11T09:16:36.789Z,37184
2016-08-11T09:17:38.512Z,43648
2016-08-11T09:18:37.543Z,48128
2016-08-11T09:19:39.541Z,48320
2016-08-11T09:20:37.493Z,43808
2016-08-11T09:21:39.228Z,45408
2016-08-11T09:22:38.088Z,43136
2016-08-11T09:23:36.497Z,42880
2016-08-11T09:24:38.061Z,44768
2016-08-11T09:25:36.885Z,53184
2016-08-11T09:26:37.969Z,49504
2016-08-11T09:27:36.818Z,50496
2016-08-11T09:28:38.496Z,54528
2016-08-11T09:30:38.459Z,53120
2016-08-11T09:31:38.658Z,53568
2016-08-11T09:32:37.875Z,45760
2016-08-11T09:33:38.674Z,45056
2016-08-11T09:34:39.153Z,66592
2016-08-11T09:35:39.960Z,53568
2016-08-11T09:36:37.285Z,57504
2016-08-11T09:37:38.232Z,54496
2016-08-11T09:38:38.816Z,59104
2016-08-11T09:39:37.202Z,53120
2016-08-11T09:40:38.289Z,62624
2016-08-11T09:41:38.313Z,61120
2016-08-11T09:42:36.869Z,66496
2016-08-11T09:43:39.192Z,54720
2016-08-11T09:45:38.349Z,57984
2016-08-11T09:46:39.219Z,54752
2016-08-11T09:47:40.738Z,49120
2016-08-11T09:48:39.053Z,60896
2016-08-11T09:49:38.660Z,57792
2016-08-11T09:50:38.159Z,48640
2016-08-11T09:51:38.238Z,44256
2016-08-11T09:52:39.196Z,41632
2016-08-11T09:53:38.215Z,43424
2016-08-11T09:54:39.916Z,58624
2016-08-11T09:55:37.545Z,39808
2016-08-11T09:56:39.075Z,38784
2016-08-11T09:57:38.963Z,38112
2016-08-11T09:58:38.971Z,37952
2016-08-11T10:00:38.816Z,37536
2016-08-11T10:01:39.550Z,35968
2016-08-11T10:02:38.476Z,35168
2016-08-11T10:03:39.042Z,34144
2016-08-11T10:04:39.361Z,33600
2016-08-11T10:05:38.998Z,33632
2016-08-11T10:06:38.655Z,34208
2016-08-11T10:07:40.288Z,34880
2016-08-11T10:08:39.251Z,35872
2016-08-11T10:09:39.265Z,36640
2016-08-11T10:10:39.614Z,37472
2016-08-11T10:11:39.448Z,38048
2016-08-11T10:12:39.065Z,38816
2016-08-11T10:13:39.459Z,40000
2016-08-11T10:15:39.236Z,43552
2016-08-11T10:16:38.760Z,44832
2016-08-11T10:17:39.018Z,45600
2016-08-11T10:18:40.322Z,50528
2016-08-11T10:19:38.801Z,50784
2016-08-11T10:20:38.989Z,50656
2016-08-11T10:21:39.989Z,52416
2016-08-11T10:22:39.841Z,56608
2016-08-11T10:23:40.475Z,54464
2016-08-11T10:24:39.354Z,56768
2016-08-11T10:25:41.450Z,54624
2016-08-11T10:26:41.020Z,53248
2016-08-11T10:27:39.348Z,51264
2016-08-11T10:28:40.691Z,51936
2016-08-11T10:30:40.791Z,49472
2016-08-11T10:31:41.735Z,49088
2016-08-11T10:32:39.082Z,51488
2016-08-11T10:33:39.644Z,52160
2016-08-11T10:34:40.298Z,54592
2016-08-11T10:35:40.513Z,62400
2016-08-11T10:36:40.062Z,56160
2016-08-11T10:37:39.343Z,66368
2016-08-11T10:38:38.894Z,58080
2016-08-11T10:39:39.379Z,56768
2016-08-11T10:40:39.725Z,57056
2016-08-11T10:41:38.748Z,54368
2016-08-11T10:42:40.077Z,51616
2016-08-11T10:43:42.763Z,49856
2016-08-11T10:45:41.590Z,47200
2016-08-11T10:46:39.443Z,45440
2016-08-11T10:47:39.147Z,45248
2016-08-11T10:48:39.473Z,45728
2016-08-11T10:49:39.571Z,49504
2016-08-11T10:50:40.896Z,53216
2016-08-11T10:51:41.519Z,58752
2016-08-11T10:52:39.331Z,58880
2016-08-11T10:53:40.383Z,58080
2016-08-11T10:54:41.732Z,65472
2016-08-11T10:55:39.483Z,68704
2016-08-11T10:56:39.661Z,67104
2016-08-11T10:57:41.130Z,75552
2016-08-11T10:58:40.551Z,70592
2016-08-11T10:59:40.511Z,70304
2016-08-11T11:00:41.333Z,91008
2016-08-11T11:01:40.814Z,64384
2016-08-11T11:02:41.331Z,54304
2016-08-11T11:03:40.524Z,47744
2016-08-11T11:04:40.117Z,47104
2016-08-11T11:05:40.711Z,48032
2016-08-11T11:06:40.606Z,68224
2016-08-11T11:07:41.434Z,79296
2016-08-11T11:08:41.919Z,76288
2016-08-11T11:09:41.322Z,79680
2016-08-11T11:10:40.350Z,84448
2016-08-11T11:11:41.600Z,85248
2016-08-11T11:12:41.116Z,70176
2016-08-11T11:13:42.002Z,58784
2016-08-11T11:14:40.019Z,57824
2016-08-11T11:15:41.982Z,64448
2016-08-11T11:16:40.813Z,55584
2016-08-11T11:17:42.293Z,55232
2016-08-11T11:18:41.538Z,52736
2016-08-11T11:19:40.957Z,50176
2016-08-11T11:20:40.674Z,48064
2016-08-11T11:21:42.126Z,46208
2016-08-11T11:22:41.431Z,45344
2016-08-11T11:23:41.150Z,45152
2016-08-11T11:24:41.086Z,44352
2016-08-11T11:25:40.686Z,44320
2016-08-11T11:26:41.084Z,43904
2016-08-11T11:27:40.822Z,43328
2016-08-11T11:28:41.895Z,43168
2016-08-11T11:29:42.486Z,43552
2016-08-11T11:30:42.185Z,44352
2016-08-11T11:31:42.174Z,45856
2016-08-11T11:32:41.003Z,47840
2016-08-11T11:33:41.408Z,49760
2016-08-11T11:34:40.844Z,51392
2016-08-11T11:35:40.770Z,51904
2016-08-11T11:36:42.362Z,52032
2016-08-11T11:37:41.042Z,52768
2016-08-11T11:38:43.146Z,53824
2016-08-11T11:39:41.409Z,55520
2016-08-11T11:40:41.752Z,54208
2016-08-11T11:41:41.222Z,55360
2016-08-11T11:42:43.730Z,54816
2016-08-11T11:43:40.934Z,52480
2016-08-11T11:44:41.454Z,51936
2016-08-11T11:45:42.958Z,52416
2016-08-11T11:46:42.162Z,51936
2016-08-11T11:47:41.454Z,51296
2016-08-11T11:48:43.105Z,51744
2016-08-11T11:49:42.250Z,50848
2016-08-11T11:50:41.922Z,49760
2016-08-11T11:51:42.454Z,50048
2016-08-11T11:52:42.430Z,48160
2016-08-11T11:53:41.589Z,48064
2016-08-11T11:54:42.936Z,46912
2016-08-11T11:55:41.669Z,47808
2016-08-11T11:56:43.081Z,51744
2016-08-11T11:57:41.720Z,54976
2016-08-11T11:58:44.216Z,49792
2016-08-11T11:59:43.122Z,49696
2016-08-11T12:00:41.901Z,49120
2016-08-11T12:01:42.488Z,48384
2016-08-11T12:02:43.240Z,51232
2016-08-11T12:03:41.452Z,48192
2016-08-11T12:04:42.067Z,48576
2016-08-11T12:05:43.281Z,49408
2016-08-11T12:06:43.030Z,46560
2016-08-11T12:07:42.105Z,45120
2016-08-11T12:08:41.715Z,44160
2016-08-11T12:09:44.484Z,42464
2016-08-11T12:10:43.061Z,41088
2016-08-11T12:11:43.044Z,40320
2016-08-11T12:12:44.034Z,39712
2016-08-11T12:13:42.402Z,39744
2016-08-11T12:14:43.003Z,40032
2016-08-11T12:15:45.791Z,40096
2016-08-11T12:16:41.995Z,40224
2016-08-11T12:17:43.764Z,41152
2016-08-11T12:18:43.965Z,42240
2016-08-11T12:19:44.348Z,42080
2016-08-11T12:20:42.366Z,43616
2016-08-11T12:21:42.451Z,44512
2016-08-11T12:22:44.161Z,44704
2016-08-11T12:23:43.902Z,43872
2016-08-11T12:24:44.283Z,46208
2016-08-11T12:25:43.143Z,48704
2016-08-11T12:26:45.075Z,48576
2016-08-11T12:27:43.397Z,48576
2016-08-11T12:28:44.738Z,47936
2016-08-11T12:29:43.580Z,48576
2016-08-11T12:30:43.505Z,47264
2016-08-11T12:31:43.358Z,45184
2016-08-11T12:32:43.261Z,44480
2016-08-11T12:33:44.535Z,44512
2016-08-11T12:34:42.784Z,44704
2016-08-11T12:35:43.976Z,44288
2016-08-11T12:36:43.843Z,43232
2016-08-11T12:37:45.421Z,43808
2016-08-11T12:38:43.018Z,44736
2016-08-11T12:39:43.483Z,46080
2016-08-11T12:40:43.489Z,48608
2016-08-11T12:41:42.966Z,47008
2016-08-11T12:42:43.680Z,50720
2016-08-11T12:43:43.984Z,47680
2016-08-11T12:44:42.823Z,49568
2016-08-11T12:45:44.949Z,45856
2016-08-11T12:46:46.165Z,55072
2016-08-11T12:47:43.248Z,46944
2016-08-11T12:48:43.082Z,43040
2016-08-11T12:49:44.831Z,40736
2016-08-11T12:50:43.927Z,40128
2016-08-11T12:51:44.583Z,40704
2016-08-11T12:52:43.311Z,41504
2016-08-11T12:53:43.295Z,41824
2016-08-11T12:54:46.839Z,41632
2016-08-11T12:55:43.572Z,43200
2016-08-11T12:56:44.642Z,42592
2016-08-11T12:57:44.807Z,44928
2016-08-11T12:58:44.393Z,45696
2016-08-11T12:59:43.909Z,42080
2016-08-11T13:00:44.021Z,42592
2016-08-11T13:01:43.645Z,44832
2016-08-11T13:02:44.873Z,47712
2016-08-11T13:03:45.173Z,44960
2016-08-11T13:04:44.095Z,43104
2016-08-11T13:05:44.104Z,43040
2016-08-11T13:06:44.314Z,42560
2016-08-11T13:07:45.868Z,43360
2016-08-11T13:08:45.412Z,41536
2016-08-11T13:09:43.550Z,40352
2016-08-11T13:10:43.246Z,38944
2016-08-11T13:11:45.607Z,38112
2016-08-11T13:12:47.623Z,36256
2016-08-11T13:13:45.029Z,34528
2016-08-11T13:14:45.410Z,33568
2016-08-11T13:15:45.866Z,32896
2016-08-11T13:16:45.254Z,32608
2016-08-11T13:17:44.628Z,32512
2016-08-11T13:18:45.022Z,32512
2016-08-11T13:19:45.615Z,32256
2016-08-11T13:20:46.814Z,31648
2016-08-11T13:21:45.206Z,30816
2016-08-11T13:22:45.016Z,30048
2016-08-11T13:23:45.493Z,29600
2016-08-11T13:24:43.934Z,29408
2016-08-11T13:25:44.153Z,28800
2016-08-11T13:26:45.899Z,28160
2016-08-11T13:27:46.318Z,27744
2016-08-11T13:28:45.501Z,27648
2016-08-11T13:29:45.671Z,27136
2016-08-11T13:30:44.258Z,25984
2016-08-11T13:31:45.234Z,26464
2016-08-11T13:32:45.796Z,27296
2016-08-11T13:33:44.593Z,26784
2016-08-11T13:34:44.657Z,25280
2016-08-11T13:35:45.739Z,23584
2016-08-11T13:36:46.629Z,22112
2016-08-11T13:37:44.969Z,21408